sensor_id;sensor_type;location;lat;lon;timestamp;P1;durP1;ratioP1;P2;durP2;ratioP2
76433;SDS011;65265;53.200;6.080;2023-04-09T00:01:07;52.60;;;26.52;;
76433;SDS011;65265;53.200;6.080;2023-04-09T00:06:00;63.90;;;31.92;;
76433;SDS011;65265;53.200;6.080;2023-04-09T00:10:53;56.97;;;27.33;;
76433;SDS011;65265;53.200;6.080;2023-04-09T00:15:46;57.47;;;29.20;;
76433;SDS011;65265;53.200;6.080;2023-04-09T00:20:38;58.53;;;29.65;;
76433;SDS011;65265;53.200;6.080;2023-04-09T00:25:30;53.92;;;29.55;;
76433;SDS011;65265;53.200;6.080;2023-04-09T00:30:24;52.65;;;28.63;;
76433;SDS011;65265;53.200;6.080;2023-04-09T00:35:18;51.92;;;27.15;;
76433;SDS011;65265;53.200;6.080;2023-04-09T00:40:10;54.08;;;26.75;;
76433;SDS011;65265;53.200;6.080;2023-04-09T00:45:02;49.38;;;25.73;;
76433;SDS011;65265;53.200;6.080;2023-04-09T00:49:56;47.53;;;24.17;;
76433;SDS011;65265;53.200;6.080;2023-04-09T00:54:48;47.70;;;24.27;;
76433;SDS011;65265;53.200;6.080;2023-04-09T00:59:41;49.20;;;25.88;;
76433;SDS011;65265;53.200;6.080;2023-04-09T01:04:34;43.53;;;24.58;;
76433;SDS011;65265;53.200;6.080;2023-04-09T01:09:30;47.30;;;23.88;;
76433;SDS011;65265;53.200;6.080;2023-04-09T01:14:26;47.60;;;26.30;;
76433;SDS011;65265;53.200;6.080;2023-04-09T01:19:27;55.38;;;25.75;;
76433;SDS011;65265;53.200;6.080;2023-04-09T01:24:35;51.40;;;24.45;;
76433;SDS011;65265;53.200;6.080;2023-04-09T01:29:34;57.92;;;26.30;;
76433;SDS011;65265;53.200;6.080;2023-04-09T01:34:29;52.40;;;27.95;;
76433;SDS011;65265;53.200;6.080;2023-04-09T01:39:22;51.10;;;24.90;;
76433;SDS011;65265;53.200;6.080;2023-04-09T01:44:14;54.75;;;25.83;;
76433;SDS011;65265;53.200;6.080;2023-04-09T01:49:09;56.45;;;24.25;;
76433;SDS011;65265;53.200;6.080;2023-04-09T01:54:01;58.65;;;24.98;;
76433;SDS011;65265;53.200;6.080;2023-04-09T01:58:53;58.15;;;25.73;;
76433;SDS011;65265;53.200;6.080;2023-04-09T02:03:45;53.42;;;23.30;;
76433;SDS011;65265;53.200;6.080;2023-04-09T02:08:41;55.60;;;24.10;;
76433;SDS011;65265;53.200;6.080;2023-04-09T02:13:35;51.55;;;24.80;;
76433;SDS011;65265;53.200;6.080;2023-04-09T02:18:29;55.85;;;23.08;;
76433;SDS011;65265;53.200;6.080;2023-04-09T02:23:21;51.63;;;25.85;;
76433;SDS011;65265;53.200;6.080;2023-04-09T02:28:15;46.83;;;24.38;;
76433;SDS011;65265;53.200;6.080;2023-04-09T02:33:07;58.72;;;25.23;;
76433;SDS011;65265;53.200;6.080;2023-04-09T02:37:59;54.30;;;23.42;;
76433;SDS011;65265;53.200;6.080;2023-04-09T02:42:52;50.70;;;22.60;;
76433;SDS011;65265;53.200;6.080;2023-04-09T02:47:46;64.60;;;25.92;;
76433;SDS011;65265;53.200;6.080;2023-04-09T02:52:38;57.50;;;23.67;;
76433;SDS011;65265;53.200;6.080;2023-04-09T02:57:30;44.40;;;20.00;;
76433;SDS011;65265;53.200;6.080;2023-04-09T03:02:24;46.75;;;23.33;;
76433;SDS011;65265;53.200;6.080;2023-04-09T03:07:17;45.95;;;21.63;;
76433;SDS011;65265;53.200;6.080;2023-04-09T03:12:09;41.30;;;18.33;;
76433;SDS011;65265;53.200;6.080;2023-04-09T03:17:01;35.83;;;16.50;;
76433;SDS011;65265;53.200;6.080;2023-04-09T03:21:52;39.33;;;17.35;;
76433;SDS011;65265;53.200;6.080;2023-04-09T03:26:46;45.10;;;21.88;;
76433;SDS011;65265;53.200;6.080;2023-04-09T03:31:38;43.08;;;19.17;;
76433;SDS011;65265;53.200;6.080;2023-04-09T03:36:30;49.45;;;21.08;;
76433;SDS011;65265;53.200;6.080;2023-04-09T03:41:22;42.42;;;18.13;;
76433;SDS011;65265;53.200;6.080;2023-04-09T03:46:16;43.70;;;18.65;;
76433;SDS011;65265;53.200;6.080;2023-04-09T03:51:10;35.65;;;16.02;;
76433;SDS011;65265;53.200;6.080;2023-04-09T03:56:02;47.35;;;18.60;;
76433;SDS011;65265;53.200;6.080;2023-04-09T04:00:54;39.45;;;16.73;;
76433;SDS011;65265;53.200;6.080;2023-04-09T04:05:47;46.42;;;21.40;;
76433;SDS011;65265;53.200;6.080;2023-04-09T04:10:39;42.30;;;17.35;;
76433;SDS011;65265;53.200;6.080;2023-04-09T04:15:31;50.35;;;21.50;;
76433;SDS011;65265;53.200;6.080;2023-04-09T04:20:23;43.63;;;18.65;;
76433;SDS011;65265;53.200;6.080;2023-04-09T04:25:16;36.83;;;16.60;;
76433;SDS011;65265;53.200;6.080;2023-04-09T04:30:08;38.15;;;17.75;;
76433;SDS011;65265;53.200;6.080;2023-04-09T04:35:00;37.92;;;18.73;;
76433;SDS011;65265;53.200;6.080;2023-04-09T04:39:51;43.72;;;18.92;;
76433;SDS011;65265;53.200;6.080;2023-04-09T04:44:46;39.53;;;18.45;;
76433;SDS011;65265;53.200;6.080;2023-04-09T04:49:37;42.42;;;20.48;;
76433;SDS011;65265;53.200;6.080;2023-04-09T04:54:29;36.67;;;19.10;;
76433;SDS011;65265;53.200;6.080;2023-04-09T04:59:21;40.05;;;17.80;;
76433;SDS011;65265;53.200;6.080;2023-04-09T05:04:14;33.17;;;15.50;;
76433;SDS011;65265;53.200;6.080;2023-04-09T05:09:06;42.83;;;17.45;;
76433;SDS011;65265;53.200;6.080;2023-04-09T05:13:58;33.95;;;16.00;;
76433;SDS011;65265;53.200;6.080;2023-04-09T05:18:50;41.25;;;18.98;;
76433;SDS011;65265;53.200;6.080;2023-04-09T05:23:44;34.80;;;16.33;;
76433;SDS011;65265;53.200;6.080;2023-04-09T05:28:36;38.25;;;17.13;;
76433;SDS011;65265;53.200;6.080;2023-04-09T05:33:28;41.28;;;17.25;;
76433;SDS011;65265;53.200;6.080;2023-04-09T05:38:24;40.55;;;16.23;;
76433;SDS011;65265;53.200;6.080;2023-04-09T05:43:17;43.08;;;17.60;;
76433;SDS011;65265;53.200;6.080;2023-04-09T05:48:09;37.10;;;16.80;;
76433;SDS011;65265;53.200;6.080;2023-04-09T05:53:02;34.35;;;16.90;;
76433;SDS011;65265;53.200;6.080;2023-04-09T05:57:54;31.73;;;15.13;;
76433;SDS011;65265;53.200;6.080;2023-04-09T06:02:47;37.50;;;16.85;;
76433;SDS011;65265;53.200;6.080;2023-04-09T06:12:32;29.38;;;14.27;;
76433;SDS011;65265;53.200;6.080;2023-04-09T06:17:24;31.52;;;14.80;;
76433;SDS011;65265;53.200;6.080;2023-04-09T06:22:17;27.58;;;13.98;;
76433;SDS011;65265;53.200;6.080;2023-04-09T06:27:10;30.80;;;14.10;;
76433;SDS011;65265;53.200;6.080;2023-04-09T06:32:03;28.08;;;14.25;;
76433;SDS011;65265;53.200;6.080;2023-04-09T06:36:55;33.45;;;15.25;;
76433;SDS011;65265;53.200;6.080;2023-04-09T06:41:49;29.88;;;14.23;;
76433;SDS011;65265;53.200;6.080;2023-04-09T06:46:41;27.98;;;18.42;;
76433;SDS011;65265;53.200;6.080;2023-04-09T06:51:33;31.00;;;13.90;;
76433;SDS011;65265;53.200;6.080;2023-04-09T06:56:25;26.17;;;13.20;;
76433;SDS011;65265;53.200;6.080;2023-04-09T07:01:18;29.20;;;14.80;;
76433;SDS011;65265;53.200;6.080;2023-04-09T07:06:11;26.35;;;14.90;;
76433;SDS011;65265;53.200;6.080;2023-04-09T07:11:04;29.13;;;13.63;;
76433;SDS011;65265;53.200;6.080;2023-04-09T07:15:56;28.55;;;15.13;;
76433;SDS011;65265;53.200;6.080;2023-04-09T07:20:49;30.27;;;15.35;;
76433;SDS011;65265;53.200;6.080;2023-04-09T07:25:42;27.80;;;13.98;;
76433;SDS011;65265;53.200;6.080;2023-04-09T07:30:34;28.70;;;14.23;;
76433;SDS011;65265;53.200;6.080;2023-04-09T07:35:25;31.10;;;14.93;;
76433;SDS011;65265;53.200;6.080;2023-04-09T07:40:19;29.38;;;14.35;;
76433;SDS011;65265;53.200;6.080;2023-04-09T07:45:10;27.67;;;13.63;;
76433;SDS011;65265;53.200;6.080;2023-04-09T07:50:03;30.30;;;15.90;;
76433;SDS011;65265;53.200;6.080;2023-04-09T07:54:55;29.23;;;16.27;;
76433;SDS011;65265;53.200;6.080;2023-04-09T07:59:49;29.05;;;15.43;;
76433;SDS011;65265;53.200;6.080;2023-04-09T08:04:41;26.25;;;13.10;;
76433;SDS011;65265;53.200;6.080;2023-04-09T08:09:33;26.42;;;13.77;;
76433;SDS011;65265;53.200;6.080;2023-04-09T08:14:25;31.85;;;15.02;;
76433;SDS011;65265;53.200;6.080;2023-04-09T08:19:18;30.48;;;14.85;;
76433;SDS011;65265;53.200;6.080;2023-04-09T08:24:10;28.35;;;17.75;;
76433;SDS011;65265;53.200;6.080;2023-04-09T08:29:03;28.95;;;14.55;;
76433;SDS011;65265;53.200;6.080;2023-04-09T08:33:55;30.38;;;14.85;;
76433;SDS011;65265;53.200;6.080;2023-04-09T08:38:48;25.85;;;14.48;;
76433;SDS011;65265;53.200;6.080;2023-04-09T08:43:42;27.90;;;13.52;;
76433;SDS011;65265;53.200;6.080;2023-04-09T08:48:35;27.65;;;13.80;;
76433;SDS011;65265;53.200;6.080;2023-04-09T08:53:27;28.48;;;14.52;;
76433;SDS011;65265;53.200;6.080;2023-04-09T08:58:21;27.60;;;14.35;;
76433;SDS011;65265;53.200;6.080;2023-04-09T09:03:13;24.40;;;12.45;;
76433;SDS011;65265;53.200;6.080;2023-04-09T09:08:06;27.85;;;13.93;;
76433;SDS011;65265;53.200;6.080;2023-04-09T09:12:59;26.48;;;13.32;;
76433;SDS011;65265;53.200;6.080;2023-04-09T09:17:53;28.70;;;16.45;;
76433;SDS011;65265;53.200;6.080;2023-04-09T09:22:50;27.92;;;13.90;;
76433;SDS011;65265;53.200;6.080;2023-04-09T09:27:43;27.38;;;13.73;;
76433;SDS011;65265;53.200;6.080;2023-04-09T09:32:35;27.40;;;13.07;;
76433;SDS011;65265;53.200;6.080;2023-04-09T09:42:21;30.75;;;15.18;;
76433;SDS011;65265;53.200;6.080;2023-04-09T09:47:13;29.63;;;14.60;;
76433;SDS011;65265;53.200;6.080;2023-04-09T09:52:08;25.67;;;13.45;;
76433;SDS011;65265;53.200;6.080;2023-04-09T09:57:02;32.28;;;18.23;;
76433;SDS011;65265;53.200;6.080;2023-04-09T10:01:58;29.88;;;14.70;;
76433;SDS011;65265;53.200;6.080;2023-04-09T10:06:54;30.30;;;15.05;;
76433;SDS011;65265;53.200;6.080;2023-04-09T10:11:49;30.58;;;15.02;;
76433;SDS011;65265;53.200;6.080;2023-04-09T10:16:42;30.52;;;14.93;;
76433;SDS011;65265;53.200;6.080;2023-04-09T10:21:35;31.45;;;15.85;;
76433;SDS011;65265;53.200;6.080;2023-04-09T10:26:33;25.75;;;14.02;;
76433;SDS011;65265;53.200;6.080;2023-04-09T10:31:25;24.73;;;13.93;;
76433;SDS011;65265;53.200;6.080;2023-04-09T10:36:19;30.25;;;16.17;;
76433;SDS011;65265;53.200;6.080;2023-04-09T10:41:13;30.05;;;14.10;;
76433;SDS011;65265;53.200;6.080;2023-04-09T10:46:08;30.92;;;18.05;;
76433;SDS011;65265;53.200;6.080;2023-04-09T10:51:19;31.38;;;15.50;;
76433;SDS011;65265;53.200;6.080;2023-04-09T10:56:13;33.60;;;16.90;;
76433;SDS011;65265;53.200;6.080;2023-04-09T11:01:06;31.67;;;16.38;;
76433;SDS011;65265;53.200;6.080;2023-04-09T11:05:59;26.42;;;13.88;;
76433;SDS011;65265;53.200;6.080;2023-04-09T11:10:56;35.10;;;15.80;;
76433;SDS011;65265;53.200;6.080;2023-04-09T11:15:50;29.25;;;15.32;;
76433;SDS011;65265;53.200;6.080;2023-04-09T11:20:41;29.20;;;15.82;;
76433;SDS011;65265;53.200;6.080;2023-04-09T11:25:33;28.40;;;15.30;;
76433;SDS011;65265;53.200;6.080;2023-04-09T11:30:26;24.38;;;13.43;;
76433;SDS011;65265;53.200;6.080;2023-04-09T11:35:20;24.67;;;13.60;;
76433;SDS011;65265;53.200;6.080;2023-04-09T11:40:14;26.42;;;14.10;;
76433;SDS011;65265;53.200;6.080;2023-04-09T11:45:07;24.60;;;13.05;;
76433;SDS011;65265;53.200;6.080;2023-04-09T11:50:02;28.88;;;15.65;;
76433;SDS011;65265;53.200;6.080;2023-04-09T11:54:58;30.23;;;15.63;;
76433;SDS011;65265;53.200;6.080;2023-04-09T11:59:50;27.95;;;16.92;;
76433;SDS011;65265;53.200;6.080;2023-04-09T12:04:47;25.38;;;14.80;;
76433;SDS011;65265;53.200;6.080;2023-04-09T12:09:46;25.70;;;13.52;;
76433;SDS011;65265;53.200;6.080;2023-04-09T12:14:38;27.17;;;16.48;;
76433;SDS011;65265;53.200;6.080;2023-04-09T12:19:35;23.63;;;15.88;;
76433;SDS011;65265;53.200;6.080;2023-04-09T12:24:27;25.15;;;13.70;;
76433;SDS011;65265;53.200;6.080;2023-04-09T12:29:20;24.17;;;13.82;;
76433;SDS011;65265;53.200;6.080;2023-04-09T12:34:11;23.65;;;13.20;;
76433;SDS011;65265;53.200;6.080;2023-04-09T12:39:07;26.40;;;16.77;;
76433;SDS011;65265;53.200;6.080;2023-04-09T12:43:59;26.10;;;14.10;;
76433;SDS011;65265;53.200;6.080;2023-04-09T12:48:56;22.80;;;12.52;;
76433;SDS011;65265;53.200;6.080;2023-04-09T12:53:48;24.42;;;12.77;;
76433;SDS011;65265;53.200;6.080;2023-04-09T12:58:40;19.50;;;11.43;;
76433;SDS011;65265;53.200;6.080;2023-04-09T13:03:31;19.33;;;11.68;;
76433;SDS011;65265;53.200;6.080;2023-04-09T13:08:25;20.73;;;11.82;;
76433;SDS011;65265;53.200;6.080;2023-04-09T13:13:19;19.67;;;12.45;;
76433;SDS011;65265;53.200;6.080;2023-04-09T13:18:11;21.23;;;12.15;;
76433;SDS011;65265;53.200;6.080;2023-04-09T13:23:03;21.02;;;11.90;;
76433;SDS011;65265;53.200;6.080;2023-04-09T13:27:56;25.30;;;13.02;;
76433;SDS011;65265;53.200;6.080;2023-04-09T13:32:52;22.17;;;12.43;;
76433;SDS011;65265;53.200;6.080;2023-04-09T13:37:44;22.52;;;14.90;;
76433;SDS011;65265;53.200;6.080;2023-04-09T13:42:36;22.65;;;12.27;;
76433;SDS011;65265;53.200;6.080;2023-04-09T13:47:29;19.35;;;11.18;;
76433;SDS011;65265;53.200;6.080;2023-04-09T13:52:21;20.33;;;10.80;;
76433;SDS011;65265;53.200;6.080;2023-04-09T13:57:13;18.40;;;11.68;;
76433;SDS011;65265;53.200;6.080;2023-04-09T14:02:05;21.65;;;11.13;;
76433;SDS011;65265;53.200;6.080;2023-04-09T14:06:59;18.63;;;11.25;;
76433;SDS011;65265;53.200;6.080;2023-04-09T14:11:51;17.75;;;12.13;;
76433;SDS011;65265;53.200;6.080;2023-04-09T14:16:43;19.55;;;11.82;;
76433;SDS011;65265;53.200;6.080;2023-04-09T14:21:35;18.92;;;10.68;;
76433;SDS011;65265;53.200;6.080;2023-04-09T14:26:29;21.20;;;12.63;;
76433;SDS011;65265;53.200;6.080;2023-04-09T14:31:20;16.50;;;9.52;;
76433;SDS011;65265;53.200;6.080;2023-04-09T14:36:12;18.85;;;11.70;;
76433;SDS011;65265;53.200;6.080;2023-04-09T14:41:04;16.35;;;10.05;;
76433;SDS011;65265;53.200;6.080;2023-04-09T14:45:57;18.25;;;11.40;;
76433;SDS011;65265;53.200;6.080;2023-04-09T14:50:49;18.60;;;10.48;;
76433;SDS011;65265;53.200;6.080;2023-04-09T14:55:41;17.48;;;11.05;;
76433;SDS011;65265;53.200;6.080;2023-04-09T15:00:33;19.38;;;10.63;;
76433;SDS011;65265;53.200;6.080;2023-04-09T15:05:26;17.83;;;10.65;;
76433;SDS011;65265;53.200;6.080;2023-04-09T15:10:18;17.05;;;10.07;;
76433;SDS011;65265;53.200;6.080;2023-04-09T15:15:10;18.27;;;10.27;;
76433;SDS011;65265;53.200;6.080;2023-04-09T15:20:03;19.33;;;13.05;;
76433;SDS011;65265;53.200;6.080;2023-04-09T15:24:58;19.48;;;11.88;;
76433;SDS011;65265;53.200;6.080;2023-04-09T15:29:50;17.08;;;10.50;;
76433;SDS011;65265;53.200;6.080;2023-04-09T15:34:42;18.40;;;9.73;;
76433;SDS011;65265;53.200;6.080;2023-04-09T15:39:34;18.25;;;10.48;;
76433;SDS011;65265;53.200;6.080;2023-04-09T15:44:27;16.85;;;9.25;;
76433;SDS011;65265;53.200;6.080;2023-04-09T15:49:19;15.32;;;9.45;;
76433;SDS011;65265;53.200;6.080;2023-04-09T15:59:03;16.40;;;9.32;;
76433;SDS011;65265;53.200;6.080;2023-04-09T16:03:59;16.33;;;10.30;;
76433;SDS011;65265;53.200;6.080;2023-04-09T16:08:53;16.35;;;9.50;;
76433;SDS011;65265;53.200;6.080;2023-04-09T16:13:45;15.43;;;9.38;;
76433;SDS011;65265;53.200;6.080;2023-04-09T16:18:37;14.63;;;8.35;;
76433;SDS011;65265;53.200;6.080;2023-04-09T16:23:30;13.48;;;7.72;;
76433;SDS011;65265;53.200;6.080;2023-04-09T16:28:22;14.73;;;8.82;;
76433;SDS011;65265;53.200;6.080;2023-04-09T16:33:15;14.10;;;9.50;;
76433;SDS011;65265;53.200;6.080;2023-04-09T16:38:06;14.65;;;9.95;;
76433;SDS011;65265;53.200;6.080;2023-04-09T16:43:00;15.60;;;8.52;;
76433;SDS011;65265;53.200;6.080;2023-04-09T16:47:52;13.98;;;8.75;;
76433;SDS011;65265;53.200;6.080;2023-04-09T16:52:44;13.50;;;7.28;;
76433;SDS011;65265;53.200;6.080;2023-04-09T16:57:35;13.48;;;7.25;;
76433;SDS011;65265;53.200;6.080;2023-04-09T17:02:29;12.80;;;7.22;;
76433;SDS011;65265;53.200;6.080;2023-04-09T17:07:21;14.63;;;7.70;;
76433;SDS011;65265;53.200;6.080;2023-04-09T17:12:13;14.35;;;6.97;;
76433;SDS011;65265;53.200;6.080;2023-04-09T17:17:06;11.38;;;6.35;;
76433;SDS011;65265;53.200;6.080;2023-04-09T17:22:00;12.02;;;6.00;;
76433;SDS011;65265;53.200;6.080;2023-04-09T17:26:52;11.35;;;6.78;;
76433;SDS011;65265;53.200;6.080;2023-04-09T17:31:43;11.32;;;5.68;;
76433;SDS011;65265;53.200;6.080;2023-04-09T17:36:35;8.63;;;5.47;;
76433;SDS011;65265;53.200;6.080;2023-04-09T17:41:29;9.75;;;5.45;;
76433;SDS011;65265;53.200;6.080;2023-04-09T17:46:20;10.77;;;5.60;;
76433;SDS011;65265;53.200;6.080;2023-04-09T17:51:13;11.07;;;5.30;;
76433;SDS011;65265;53.200;6.080;2023-04-09T17:56:07;11.52;;;7.00;;
76433;SDS011;65265;53.200;6.080;2023-04-09T18:01:02;8.98;;;5.25;;
76433;SDS011;65265;53.200;6.080;2023-04-09T18:05:57;10.50;;;5.88;;
76433;SDS011;65265;53.200;6.080;2023-04-09T18:10:49;11.25;;;6.13;;
76433;SDS011;65265;53.200;6.080;2023-04-09T18:15:44;11.63;;;6.22;;
76433;SDS011;65265;53.200;6.080;2023-04-09T18:20:38;9.10;;;5.15;;
76433;SDS011;65265;53.200;6.080;2023-04-09T18:25:30;10.35;;;5.50;;
76433;SDS011;65265;53.200;6.080;2023-04-09T18:30:22;10.80;;;5.55;;
76433;SDS011;65265;53.200;6.080;2023-04-09T18:35:15;10.90;;;5.68;;
76433;SDS011;65265;53.200;6.080;2023-04-09T18:40:10;13.40;;;6.05;;
76433;SDS011;65265;53.200;6.080;2023-04-09T18:45:04;11.65;;;6.50;;
76433;SDS011;65265;53.200;6.080;2023-04-09T18:49:57;11.02;;;6.30;;
76433;SDS011;65265;53.200;6.080;2023-04-09T18:54:49;10.65;;;5.75;;
76433;SDS011;65265;53.200;6.080;2023-04-09T18:59:42;11.65;;;6.50;;
76433;SDS011;65265;53.200;6.080;2023-04-09T19:04:35;12.80;;;6.50;;
76433;SDS011;65265;53.200;6.080;2023-04-09T19:09:28;11.60;;;6.97;;
76433;SDS011;65265;53.200;6.080;2023-04-09T19:14:20;12.82;;;6.75;;
76433;SDS011;65265;53.200;6.080;2023-04-09T19:19:13;13.45;;;6.90;;
76433;SDS011;65265;53.200;6.080;2023-04-09T19:24:05;11.50;;;6.57;;
76433;SDS011;65265;53.200;6.080;2023-04-09T19:28:57;11.85;;;6.55;;
76433;SDS011;65265;53.200;6.080;2023-04-09T19:33:49;12.23;;;7.20;;
76433;SDS011;65265;53.200;6.080;2023-04-09T19:38:42;16.17;;;7.68;;
76433;SDS011;65265;53.200;6.080;2023-04-09T19:43:34;13.55;;;7.55;;
76433;SDS011;65265;53.200;6.080;2023-04-09T19:48:26;13.88;;;7.00;;
76433;SDS011;65265;53.200;6.080;2023-04-09T19:53:17;13.52;;;7.78;;
76433;SDS011;65265;53.200;6.080;2023-04-09T19:58:11;13.77;;;7.25;;
76433;SDS011;65265;53.200;6.080;2023-04-09T20:03:02;15.77;;;8.35;;
76433;SDS011;65265;53.200;6.080;2023-04-09T20:12:47;19.42;;;9.90;;
76433;SDS011;65265;53.200;6.080;2023-04-09T20:17:42;19.77;;;9.32;;
76433;SDS011;65265;53.200;6.080;2023-04-09T20:22:34;15.85;;;8.85;;
76433;SDS011;65265;53.200;6.080;2023-04-09T20:27:26;20.05;;;10.98;;
76433;SDS011;65265;53.200;6.080;2023-04-09T20:32:18;19.55;;;9.18;;
76433;SDS011;65265;53.200;6.080;2023-04-09T20:37:11;19.27;;;9.00;;
76433;SDS011;65265;53.200;6.080;2023-04-09T20:42:02;18.65;;;9.27;;
76433;SDS011;65265;53.200;6.080;2023-04-09T20:46:54;16.73;;;8.60;;
76433;SDS011;65265;53.200;6.080;2023-04-09T20:51:46;17.00;;;8.70;;
76433;SDS011;65265;53.200;6.080;2023-04-09T20:56:39;15.25;;;8.45;;
76433;SDS011;65265;53.200;6.080;2023-04-09T21:01:31;17.02;;;9.00;;
76433;SDS011;65265;53.200;6.080;2023-04-09T21:06:23;14.25;;;8.20;;
76433;SDS011;65265;53.200;6.080;2023-04-09T21:11:14;18.13;;;9.95;;
76433;SDS011;65265;53.200;6.080;2023-04-09T21:16:08;19.15;;;9.57;;
76433;SDS011;65265;53.200;6.080;2023-04-09T21:21:00;17.00;;;9.85;;
76433;SDS011;65265;53.200;6.080;2023-04-09T21:25:52;21.20;;;10.90;;
76433;SDS011;65265;53.200;6.080;2023-04-09T21:30:44;18.55;;;9.68;;
76433;SDS011;65265;53.200;6.080;2023-04-09T21:35:38;19.52;;;10.95;;
76433;SDS011;65265;53.200;6.080;2023-04-09T21:40:30;23.88;;;12.90;;
76433;SDS011;65265;53.200;6.080;2023-04-09T21:45:22;22.45;;;11.02;;
76433;SDS011;65265;53.200;6.080;2023-04-09T21:50:14;22.65;;;12.48;;
76433;SDS011;65265;53.200;6.080;2023-04-09T21:55:07;21.63;;;12.02;;
76433;SDS011;65265;53.200;6.080;2023-04-09T22:00:00;24.65;;;15.07;;
76433;SDS011;65265;53.200;6.080;2023-04-09T22:04:51;26.27;;;14.95;;
76433;SDS011;65265;53.200;6.080;2023-04-09T22:09:43;28.83;;;15.57;;
76433;SDS011;65265;53.200;6.080;2023-04-09T22:14:36;29.05;;;16.15;;
76433;SDS011;65265;53.200;6.080;2023-04-09T22:19:28;27.58;;;16.52;;
76433;SDS011;65265;53.200;6.080;2023-04-09T22:24:21;26.02;;;15.82;;
76433;SDS011;65265;53.200;6.080;2023-04-09T22:29:15;31.40;;;18.02;;
76433;SDS011;65265;53.200;6.080;2023-04-09T22:34:09;34.95;;;19.50;;
76433;SDS011;65265;53.200;6.080;2023-04-09T22:39:02;34.63;;;19.38;;
76433;SDS011;65265;53.200;6.080;2023-04-09T22:43:54;31.75;;;18.00;;
76433;SDS011;65265;53.200;6.080;2023-04-09T22:48:46;30.65;;;18.13;;
76433;SDS011;65265;53.200;6.080;2023-04-09T22:53:40;35.67;;;19.70;;
76433;SDS011;65265;53.200;6.080;2023-04-09T22:58:32;32.35;;;17.73;;
76433;SDS011;65265;53.200;6.080;2023-04-09T23:03:24;33.28;;;19.00;;
76433;SDS011;65265;53.200;6.080;2023-04-09T23:08:16;35.22;;;17.40;;
76433;SDS011;65265;53.200;6.080;2023-04-09T23:13:09;31.35;;;17.52;;
76433;SDS011;65265;53.200;6.080;2023-04-09T23:18:02;34.13;;;21.50;;
76433;SDS011;65265;53.200;6.080;2023-04-09T23:22:54;31.50;;;17.23;;
76433;SDS011;65265;53.200;6.080;2023-04-09T23:27:46;27.13;;;17.17;;
76433;SDS011;65265;53.200;6.080;2023-04-09T23:32:39;30.23;;;16.38;;
76433;SDS011;65265;53.200;6.080;2023-04-09T23:37:31;31.25;;;16.75;;
76433;SDS011;65265;53.200;6.080;2023-04-09T23:42:23;33.33;;;17.80;;
76433;SDS011;65265;53.200;6.080;2023-04-09T23:47:15;31.83;;;18.15;;
76433;SDS011;65265;53.200;6.080;2023-04-09T23:52:08;29.55;;;18.35;;
76433;SDS011;65265;53.200;6.080;2023-04-09T23:56:59;34.10;;;18.40;;
